createdAt,value
2022-09-23T00:00:49.325Z,11.37
2022-09-23T00:05:59.605Z,11.43
2022-09-23T00:11:08.695Z,11.51
2022-09-23T00:16:14.969Z,11.59
2022-09-23T00:21:16.812Z,11.63
2022-09-23T00:26:19.308Z,11.67
2022-09-23T00:31:22.619Z,11.69
2022-09-23T00:36:24.294Z,11.64
2022-09-23T00:41:26.010Z,11.62
2022-09-23T00:46:29.936Z,11.62
2022-09-23T00:51:34.428Z,11.64
2022-09-23T00:56:36.839Z,11.65
2022-09-23T01:01:38.791Z,11.65
2022-09-23T01:06:40.847Z,11.62
2022-09-23T01:12:05.092Z,11.59
2022-09-23T01:17:11.162Z,11.54
2022-09-23T01:22:15.424Z,11.52
2022-09-23T01:27:24.878Z,11.50
2022-09-23T01:32:34.386Z,11.51
2022-09-23T01:37:57.014Z,11.51
2022-09-23T01:43:04.313Z,11.51
2022-09-23T01:48:15.616Z,11.51
2022-09-23T01:53:24.081Z,11.50
2022-09-23T01:58:32.117Z,11.49
2022-09-23T02:03:55.733Z,11.50
2022-09-23T02:09:01.880Z,11.49
2022-09-23T02:14:16.595Z,11.46
2022-09-23T02:19:35.886Z,11.42
2022-09-23T02:24:38.323Z,11.38
2022-09-23T02:29:45.599Z,11.32
2022-09-23T02:34:53.364Z,11.25
2022-09-23T02:40:00.073Z,11.25
2022-09-23T02:45:01.379Z,11.26
2022-09-23T02:50:02.830Z,11.31
2022-09-23T02:55:05.698Z,11.31
2022-09-23T03:00:07.317Z,11.34
2022-09-23T03:05:08.585Z,11.35
2022-09-23T03:10:28.244Z,11.34
2022-09-23T03:15:32.269Z,11.37
2022-09-23T03:20:34.129Z,11.39
2022-09-23T03:25:38.266Z,11.39
2022-09-23T03:30:40.079Z,11.35
2022-09-23T03:36:20.328Z,11.33
2022-09-23T03:41:37.122Z,11.31
2022-09-23T03:46:38.575Z,11.29
2022-09-23T03:51:44.418Z,11.29
2022-09-23T03:56:47.749Z,11.28
2022-09-23T04:01:50.085Z,11.26
2022-09-23T04:06:51.523Z,11.23
2022-09-23T04:11:53.233Z,11.20
2022-09-23T04:16:54.613Z,11.18
2022-09-23T04:21:56.110Z,11.12
2022-09-23T04:26:57.509Z,11.04
2022-09-23T04:31:58.894Z,11.01
2022-09-23T04:37:00.237Z,10.98
2022-09-23T04:42:01.528Z,10.96
2022-09-23T04:47:04.159Z,10.97
2022-09-23T04:52:05.784Z,10.98
2022-09-23T04:57:07.134Z,11.00
2022-09-23T05:02:08.469Z,11.02
2022-09-23T05:07:10.416Z,11.03
2022-09-23T05:12:11.710Z,11.04
2022-09-23T05:17:12.987Z,11.07
2022-09-23T05:22:14.311Z,11.08
2022-09-23T05:27:15.597Z,11.15
2022-09-23T05:32:17.291Z,11.21
2022-09-23T05:37:18.566Z,11.29
2022-09-23T05:42:20.875Z,11.35
2022-09-23T05:47:22.162Z,11.38
2022-09-23T05:52:23.989Z,11.43
2022-09-23T05:57:25.258Z,11.49
2022-09-23T06:02:26.739Z,11.59
2022-09-23T06:07:28.053Z,11.66
2022-09-23T06:12:29.334Z,11.73
2022-09-23T06:17:30.615Z,11.82
2022-09-23T06:22:33.109Z,11.95
2022-09-23T06:27:36.335Z,12.09
2022-09-23T06:32:37.629Z,12.23
2022-09-23T06:37:38.896Z,12.38
2022-09-23T06:42:40.665Z,12.55
2022-09-23T06:47:42.353Z,12.72
2022-09-23T06:52:49.947Z,12.88
2022-09-23T06:57:51.224Z,13.02
2022-09-23T07:02:52.660Z,13.16
2022-09-23T07:07:54.533Z,13.31
2022-09-23T07:12:55.843Z,13.46
2022-09-23T07:17:57.295Z,13.61
2022-09-23T07:22:59.006Z,13.77
2022-09-23T07:28:00.827Z,13.93
2022-09-23T07:33:06.418Z,14.09
2022-09-23T07:38:14.163Z,14.21
2022-09-23T07:43:15.847Z,14.36
2022-09-23T07:48:17.235Z,14.50
2022-09-23T07:53:18.940Z,14.63
2022-09-23T07:58:20.767Z,14.76
2022-09-23T08:03:22.193Z,14.90
2022-09-23T08:08:23.556Z,15.06
2022-09-23T08:13:24.872Z,15.19
2022-09-23T08:18:26.298Z,15.34
2022-09-23T08:23:27.736Z,15.50
2022-09-23T08:28:29.069Z,15.68
2022-09-23T08:33:30.365Z,15.84
2022-09-23T08:38:31.957Z,16.00
2022-09-23T08:43:34.561Z,16.12
2022-09-23T08:48:43.734Z,16.24
2022-09-23T08:53:46.758Z,16.37
2022-09-23T08:59:07.441Z,16.46
2022-09-23T09:04:27.871Z,16.59
2022-09-23T09:09:36.061Z,16.76
2022-09-23T09:14:47.662Z,16.88
2022-09-23T09:19:53.294Z,17.02
2022-09-23T09:24:58.683Z,16.97
2022-09-23T09:30:01.194Z,16.94
2022-09-23T09:35:08.780Z,16.96
2022-09-23T09:40:13.512Z,16.92
2022-09-23T09:45:14.821Z,16.92
2022-09-23T09:50:23.614Z,16.92
2022-09-23T09:55:28.819Z,16.90
2022-09-23T10:00:30.091Z,16.91
2022-09-23T10:05:47.027Z,16.96
2022-09-23T10:11:11.444Z,17.01
2022-09-23T10:16:15.443Z,17.08
2022-09-23T10:21:26.918Z,17.19
2022-09-23T10:26:33.161Z,17.46
2022-09-23T10:31:35.507Z,17.65
2022-09-23T10:36:40.074Z,17.74
2022-09-23T10:42:09.561Z,17.76
2022-09-23T10:47:19.435Z,17.81
2022-09-23T10:52:31.801Z,17.88
2022-09-23T10:57:41.587Z,18.10
2022-09-23T11:03:01.648Z,18.37
2022-09-23T11:08:27.399Z,18.37
2022-09-23T11:13:58.900Z,18.24
2022-09-23T11:19:07.935Z,18.14
2022-09-23T11:24:39.457Z,18.12
2022-09-23T11:29:54.371Z,18.21
2022-09-23T11:35:02.599Z,18.44
2022-09-23T11:40:06.999Z,18.62
2022-09-23T11:45:15.046Z,18.71
2022-09-23T11:50:19.549Z,18.73
2022-09-23T11:55:24.706Z,18.71
2022-09-23T12:00:34.101Z,18.77
2022-09-23T12:05:39.675Z,18.88
2022-09-23T12:10:41.331Z,18.98
2022-09-23T12:16:05.771Z,19.00
2022-09-23T12:21:32.994Z,19.01
2022-09-23T12:26:38.992Z,19.05
2022-09-23T12:31:43.047Z,19.11
2022-09-23T12:36:46.954Z,19.10
2022-09-23T12:41:50.590Z,19.08
2022-09-23T12:47:11.818Z,19.10
2022-09-23T12:52:16.305Z,19.12
2022-09-23T12:57:33.508Z,19.16
2022-09-23T13:02:46.923Z,19.24
2022-09-23T13:07:49.892Z,19.50
2022-09-23T13:12:52.731Z,19.83
2022-09-23T13:18:13.999Z,20.03
2022-09-23T13:23:32.782Z,19.97
2022-09-23T13:28:38.108Z,19.82
2022-09-23T13:33:51.170Z,19.66
2022-09-23T13:38:52.454Z,19.56
2022-09-23T13:44:00.421Z,19.50
2022-09-23T13:49:02.827Z,19.45
2022-09-23T13:54:04.628Z,19.37
2022-09-23T13:59:24.766Z,19.30
2022-09-23T14:04:26.197Z,19.33
2022-09-23T14:09:28.963Z,19.31
2022-09-23T14:14:30.901Z,19.34
2022-09-23T14:19:32.524Z,19.29
2022-09-23T14:24:36.888Z,19.34
2022-09-23T14:29:39.611Z,19.45
2022-09-23T14:35:09.023Z,19.41
2022-09-23T14:40:13.192Z,19.34
2022-09-23T14:45:16.990Z,19.22
2022-09-23T14:50:43.508Z,19.15
2022-09-23T14:55:45.945Z,19.09
2022-09-23T15:00:51.635Z,19.05
2022-09-23T15:05:57.867Z,18.97
2022-09-23T15:11:07.640Z,18.85
2022-09-23T15:16:09.863Z,18.72
2022-09-23T15:21:12.878Z,18.65
2022-09-23T15:26:18.609Z,18.60
2022-09-23T15:31:20.962Z,18.58
2022-09-23T15:36:28.906Z,18.55
2022-09-23T15:41:33.340Z,18.50
2022-09-23T15:46:35.371Z,18.44
2022-09-23T15:51:38.168Z,18.39
2022-09-23T15:56:39.713Z,18.33
2022-09-23T16:01:41.837Z,18.28
2022-09-23T16:06:45.277Z,18.20
2022-09-23T16:11:47.850Z,18.12
2022-09-23T16:16:49.279Z,18.00
2022-09-23T16:21:50.587Z,17.92
2022-09-23T16:26:51.917Z,17.89
2022-09-23T16:31:53.780Z,17.85
2022-09-23T16:36:55.270Z,17.77
2022-09-23T16:41:57.333Z,17.70
2022-09-23T16:46:58.976Z,17.61
2022-09-23T16:52:01.562Z,17.51
2022-09-23T16:57:02.860Z,17.43
2022-09-23T17:02:27.231Z,17.31
2022-09-23T17:07:29.237Z,17.17
2022-09-23T17:12:33.462Z,17.09
2022-09-23T17:17:37.413Z,16.97
2022-09-23T17:22:38.760Z,16.88
2022-09-23T17:27:40.227Z,16.76
2022-09-23T17:32:42.035Z,16.64
2022-09-23T17:37:43.466Z,16.50
2022-09-23T17:42:45.506Z,16.42
2022-09-23T17:47:51.158Z,16.33
2022-09-23T17:52:52.566Z,16.25
2022-09-23T17:57:53.836Z,16.18
2022-09-23T18:02:55.124Z,16.12
2022-09-23T18:07:56.426Z,16.07
2022-09-23T18:12:57.742Z,16.01
2022-09-23T18:17:59.038Z,15.91
2022-09-23T18:23:00.437Z,15.84
2022-09-23T18:28:02.230Z,15.81
2022-09-23T18:33:04.018Z,15.77
2022-09-23T18:38:06.480Z,15.73
2022-09-23T18:43:08.722Z,15.68
2022-09-23T18:48:29.032Z,15.64
2022-09-23T18:53:31.844Z,15.57
2022-09-23T18:58:33.484Z,15.52
2022-09-23T19:03:35.954Z,15.46
2022-09-23T19:08:37.518Z,15.39
2022-09-23T19:13:39.603Z,15.34
2022-09-23T19:18:41.583Z,15.28
2022-09-23T19:23:47.629Z,15.21
2022-09-23T19:28:53.226Z,15.16
2022-09-23T19:33:58.686Z,15.11
2022-09-23T19:39:02.961Z,15.07
2022-09-23T19:44:07.168Z,15.01
2022-09-23T19:49:09.260Z,14.99
2022-09-23T19:54:11.997Z,14.98
2022-09-23T19:59:18.347Z,15.00
2022-09-23T20:04:21.121Z,14.97
2022-09-23T20:09:22.944Z,14.90
2022-09-23T20:14:27.232Z,14.85
2022-09-23T20:19:29.240Z,14.82
2022-09-23T20:24:30.690Z,14.81
2022-09-23T20:29:32.287Z,14.79
2022-09-23T20:34:33.781Z,14.75
2022-09-23T20:39:35.445Z,14.72
2022-09-23T20:44:37.022Z,14.67
2022-09-23T20:49:42.240Z,14.62
2022-09-23T20:54:44.060Z,14.60
2022-09-23T20:59:45.649Z,14.56
2022-09-23T21:04:47.055Z,14.54
2022-09-23T21:09:48.616Z,14.53
2022-09-23T21:14:49.963Z,14.54
2022-09-23T21:19:51.315Z,14.54
2022-09-23T21:25:26.339Z,14.51
2022-09-23T21:30:14.792Z,14.53
2022-09-23T21:35:18.758Z,14.53
2022-09-23T21:40:38.896Z,14.52
2022-09-23T21:45:43.061Z,14.53
2022-09-23T21:50:44.353Z,14.56
2022-09-23T21:55:48.718Z,14.58
2022-09-23T22:00:50.087Z,14.61
2022-09-23T22:06:01.361Z,14.63
2022-09-23T22:11:04.201Z,14.65
2022-09-23T22:16:05.987Z,14.67
2022-09-23T22:21:07.391Z,14.67
2022-09-23T22:26:08.782Z,14.67
2022-09-23T22:31:28.962Z,14.66
2022-09-23T22:36:30.310Z,14.66
2022-09-23T22:41:31.906Z,14.68
2022-09-23T22:46:35.018Z,14.69
2022-09-23T22:51:37.413Z,14.71
2022-09-23T22:56:38.818Z,14.71
2022-09-23T23:01:40.514Z,14.72
2022-09-23T23:06:42.698Z,14.70
2022-09-23T23:11:44.690Z,14.69
2022-09-23T23:16:46.403Z,14.68
2022-09-23T23:21:49.234Z,14.67
2022-09-23T23:26:51.555Z,14.66
2022-09-23T23:31:52.938Z,14.66
2022-09-23T23:36:57.357Z,14.67
2022-09-23T23:41:58.637Z,14.66
2022-09-23T23:46:59.938Z,14.66
2022-09-23T23:52:01.486Z,14.67
2022-09-23T23:57:02.833Z,14.67
